createdAt,value
2023-03-01T00:01:10.048Z,-4.67
2023-03-01T00:03:56.739Z,-4.73
2023-03-01T00:06:43.803Z,-4.73
2023-03-01T00:09:29.719Z,-4.78
2023-03-01T00:12:15.473Z,-4.79
2023-03-01T00:15:01.306Z,-4.78
2023-03-01T00:17:48.463Z,-4.83
2023-03-01T00:20:34.166Z,-4.86
2023-03-01T00:23:19.842Z,-4.89
2023-03-01T00:26:07.455Z,-4.90
2023-03-01T00:28:53.806Z,-4.89
2023-03-01T00:31:39.514Z,-4.93
2023-03-01T00:34:26.590Z,-4.93
2023-03-01T00:37:12.498Z,-4.97
2023-03-01T00:39:59.121Z,-5.02
2023-03-01T00:42:45.030Z,-5.02
2023-03-01T00:45:31.876Z,-5.02
2023-03-01T00:48:18.143Z,-5.02
2023-03-01T00:51:09.326Z,-5.04
2023-03-01T00:53:55.798Z,-5.06
2023-03-01T00:56:41.724Z,-5.08
2023-03-01T00:59:27.557Z,-5.05
2023-03-01T01:02:13.356Z,-5.07
2023-03-01T01:04:59.154Z,-5.12
2023-03-01T01:07:46.459Z,-5.17
2023-03-01T01:10:32.554Z,-5.17
2023-03-01T01:13:18.279Z,-5.15
2023-03-01T01:16:04.336Z,-5.15
2023-03-01T01:18:49.968Z,-5.15
2023-03-01T01:21:35.698Z,-5.20
2023-03-01T01:24:22.984Z,-5.22
2023-03-01T01:27:09.166Z,-5.24
2023-03-01T01:29:55.115Z,-5.21
2023-03-01T01:32:40.850Z,-5.23
2023-03-01T01:35:26.617Z,-5.23
2023-03-01T01:38:12.439Z,-5.25
2023-03-01T01:40:59.621Z,-5.27
2023-03-01T01:43:45.813Z,-5.28
2023-03-01T01:46:32.781Z,-5.28
2023-03-01T01:49:26.426Z,-5.31
2023-03-01T01:52:13.445Z,-5.31
2023-03-01T01:54:59.931Z,-5.35
2023-03-01T01:57:48.070Z,-5.34
2023-03-01T02:00:34.000Z,-5.35
2023-03-01T02:03:21.142Z,-5.38
2023-03-01T02:06:08.669Z,-5.38
2023-03-01T02:08:54.719Z,-5.44
2023-03-01T02:11:40.527Z,-5.45
2023-03-01T02:14:27.636Z,-5.48
2023-03-01T02:17:13.535Z,-5.49
2023-03-01T02:20:02.578Z,-5.53
2023-03-01T02:22:48.647Z,-5.54
2023-03-01T02:25:40.189Z,-5.54
2023-03-01T02:28:32.951Z,-5.57
2023-03-01T02:31:37.405Z,-5.58
2023-03-01T02:34:26.030Z,-5.66
2023-03-01T02:37:15.805Z,-5.65
2023-03-01T02:40:01.909Z,-5.65
2023-03-01T02:42:49.235Z,-5.70
2023-03-01T02:45:36.717Z,-5.69
2023-03-01T02:48:22.943Z,-5.71
2023-03-01T02:51:12.244Z,-5.70
2023-03-01T02:54:00.778Z,-5.71
2023-03-01T02:56:49.092Z,-5.71
2023-03-01T02:59:40.206Z,-5.72
2023-03-01T03:02:37.625Z,-5.71
2023-03-01T03:05:49.752Z,-5.74
2023-03-01T03:08:36.175Z,-5.71
2023-03-01T03:11:22.267Z,-5.72
2023-03-01T03:14:13.458Z,-5.76
2023-03-01T03:17:01.281Z,-5.78
2023-03-01T03:19:48.454Z,-5.82
2023-03-01T03:22:34.943Z,-5.83
2023-03-01T03:25:21.464Z,-5.84
2023-03-01T03:28:10.384Z,-5.85
2023-03-01T03:30:56.174Z,-5.88
2023-03-01T03:33:41.908Z,-5.90
2023-03-01T03:36:29.496Z,-5.94
2023-03-01T03:39:15.790Z,-5.98
2023-03-01T03:42:01.566Z,-5.97
2023-03-01T03:44:47.347Z,-5.99
2023-03-01T03:47:33.138Z,-6.00
2023-03-01T03:50:19.156Z,-5.97
2023-03-01T03:53:07.608Z,-5.96
2023-03-01T03:55:53.812Z,-5.96
2023-03-01T03:58:39.547Z,-5.98
2023-03-01T04:01:25.552Z,-5.99
2023-03-01T04:04:11.433Z,-6.02
2023-03-01T04:06:57.296Z,-6.03
2023-03-01T04:09:44.480Z,-6.07
2023-03-01T04:12:30.366Z,-6.08
2023-03-01T04:15:16.227Z,-6.12
2023-03-01T04:18:02.185Z,-6.08
2023-03-01T04:20:48.487Z,-6.10
2023-03-01T04:23:34.367Z,-6.12
2023-03-01T04:26:21.841Z,-6.13
2023-03-01T04:29:07.850Z,-6.11
2023-03-01T04:31:54.378Z,-6.12
2023-03-01T04:34:40.762Z,-6.12
2023-03-01T04:37:26.554Z,-6.10
2023-03-01T04:40:17.323Z,-6.15
2023-03-01T04:43:04.686Z,-6.18
2023-03-01T04:45:50.670Z,-6.20
2023-03-01T04:48:37.174Z,-6.23
2023-03-01T04:51:23.004Z,-6.23
2023-03-01T04:54:11.194Z,-6.25
2023-03-01T04:56:57.228Z,-6.27
2023-03-01T04:59:44.947Z,-6.31
2023-03-01T05:02:30.927Z,-6.29
2023-03-01T05:05:17.273Z,-6.31
2023-03-01T05:08:03.914Z,-6.33
2023-03-01T05:10:51.019Z,-6.38
2023-03-01T05:13:36.985Z,-6.40
2023-03-01T05:16:24.417Z,-6.41
2023-03-01T05:19:16.045Z,-6.45
2023-03-01T05:22:05.678Z,-6.47
2023-03-01T05:24:51.551Z,-6.46
2023-03-01T05:27:37.492Z,-6.43
2023-03-01T05:30:23.449Z,-6.46
2023-03-01T05:33:14.283Z,-6.45
2023-03-01T05:36:01.649Z,-6.47
2023-03-01T05:38:47.422Z,-6.48
2023-03-01T05:41:33.167Z,-6.47
2023-03-01T05:44:18.993Z,-6.48
2023-03-01T05:47:04.754Z,-6.51
2023-03-01T05:49:51.763Z,-6.51
2023-03-01T05:52:37.534Z,-6.54
2023-03-01T05:55:23.289Z,-6.55
2023-03-01T05:58:09.543Z,-6.56
2023-03-01T06:00:57.073Z,-6.54
2023-03-01T06:03:43.520Z,-6.53
2023-03-01T06:06:31.358Z,-6.54
2023-03-01T06:09:17.416Z,-6.55
2023-03-01T06:12:03.244Z,-6.56
2023-03-01T06:14:49.202Z,-6.54
2023-03-01T06:17:38.169Z,-6.58
2023-03-01T06:20:24.497Z,-6.57
2023-03-01T06:23:11.559Z,-6.59
2023-03-01T06:25:57.309Z,-6.57
2023-03-01T06:28:43.265Z,-6.57
2023-03-01T06:31:29.116Z,-6.53
2023-03-01T06:34:15.009Z,-6.51
2023-03-01T06:37:00.710Z,-6.46
2023-03-01T06:39:47.790Z,-6.46
2023-03-01T06:42:33.832Z,-6.45
2023-03-01T06:45:19.964Z,-6.45
2023-03-01T06:48:06.170Z,-6.44
2023-03-01T06:50:52.662Z,-6.41
2023-03-01T06:53:38.863Z,-6.41
2023-03-01T06:56:26.073Z,-6.40
2023-03-01T06:59:12.234Z,-6.38
2023-03-01T07:01:57.961Z,-6.36
2023-03-01T07:04:43.801Z,-6.32
2023-03-01T07:07:29.419Z,-6.31
2023-03-01T07:10:15.246Z,-6.26
2023-03-01T07:13:02.310Z,-6.23
2023-03-01T07:15:48.119Z,-6.18
2023-03-01T07:18:34.360Z,-6.14
2023-03-01T07:21:20.195Z,-6.07
2023-03-01T07:24:06.639Z,-6.00
2023-03-01T07:26:52.659Z,-5.97
2023-03-01T07:29:39.680Z,-5.92
2023-03-01T07:32:25.653Z,-5.84
2023-03-01T07:35:11.570Z,-5.77
2023-03-01T07:37:57.830Z,-5.68
2023-03-01T07:40:43.710Z,-5.61
2023-03-01T07:43:30.466Z,-5.58
2023-03-01T07:46:18.696Z,-5.50
2023-03-01T07:49:05.513Z,-5.25
2023-03-01T07:51:51.562Z,-5.20
2023-03-01T07:54:37.360Z,-5.00
2023-03-01T07:57:23.057Z,-4.86
2023-03-01T08:00:09.700Z,-4.70
2023-03-01T08:03:02.571Z,-4.56
2023-03-01T08:05:48.505Z,-4.49
2023-03-01T08:08:34.958Z,-4.46
2023-03-01T08:11:20.734Z,-4.37
2023-03-01T08:14:07.519Z,-4.30
2023-03-01T08:16:53.687Z,-4.24
2023-03-01T08:19:40.743Z,-4.05
2023-03-01T08:22:26.381Z,-3.99
2023-03-01T08:25:12.362Z,-3.87
2023-03-01T08:27:57.949Z,-3.79
2023-03-01T08:30:43.812Z,-3.68
2023-03-01T08:33:30.191Z,-3.63
2023-03-01T08:36:17.963Z,-3.44
2023-03-01T08:39:04.011Z,-3.40
2023-03-01T08:41:49.852Z,-3.16
2023-03-01T08:44:36.376Z,-2.82
2023-03-01T08:47:22.174Z,-2.81
2023-03-01T08:50:08.281Z,-2.58
2023-03-01T08:52:55.525Z,-2.52
2023-03-01T08:55:41.281Z,-2.50
2023-03-01T08:58:27.069Z,-2.41
2023-03-01T09:01:13.298Z,-2.22
2023-03-01T09:03:59.615Z,-2.09
2023-03-01T09:06:45.586Z,-1.97
2023-03-01T09:09:32.789Z,-1.89
2023-03-01T09:12:18.613Z,-1.70
2023-03-01T09:15:04.642Z,-1.54
2023-03-01T09:17:50.757Z,-1.42
2023-03-01T09:20:36.596Z,-1.11
2023-03-01T09:23:22.386Z,-0.90
2023-03-01T09:26:10.329Z,-0.58
2023-03-01T09:28:57.045Z,-0.23
2023-03-01T09:31:42.880Z,0.07
2023-03-01T09:34:28.677Z,0.22
2023-03-01T09:37:15.868Z,0.55
2023-03-01T09:40:01.618Z,0.92
2023-03-01T09:42:50.247Z,1.33
2023-03-01T09:45:36.336Z,1.80
2023-03-01T09:48:24.427Z,2.24
2023-03-01T09:51:11.159Z,2.71
2023-03-01T09:53:57.943Z,3.03
2023-03-01T09:56:46.407Z,3.40
2023-03-01T09:59:35.011Z,3.91
2023-03-01T10:02:24.042Z,4.03
2023-03-01T10:05:16.265Z,4.63
2023-03-01T10:08:04.785Z,4.98
2023-03-01T10:10:50.905Z,5.39
2023-03-01T10:13:39.835Z,5.72
2023-03-01T10:16:28.319Z,6.24
2023-03-01T10:19:16.161Z,6.58
2023-03-01T10:22:02.987Z,7.01
2023-03-01T10:24:48.770Z,6.81
2023-03-01T10:27:37.399Z,7.06
2023-03-01T10:30:24.887Z,7.54
2023-03-01T10:33:14.258Z,7.93
2023-03-01T10:36:00.279Z,8.04
2023-03-01T10:38:50.440Z,8.44
2023-03-01T10:41:36.376Z,8.54
2023-03-01T10:44:36.629Z,7.96
2023-03-01T10:47:24.215Z,7.84
2023-03-01T10:50:19.915Z,8.64
2023-03-01T10:53:06.157Z,9.09
2023-03-01T10:55:58.366Z,8.63
2023-03-01T10:58:58.316Z,8.86
2023-03-01T11:01:44.225Z,8.73
2023-03-01T11:04:30.382Z,8.89
2023-03-01T11:07:17.414Z,9.39
2023-03-01T11:10:07.416Z,9.78
2023-03-01T11:12:53.856Z,10.07
2023-03-01T11:15:39.875Z,9.36
2023-03-01T11:18:40.559Z,10.14
2023-03-01T11:21:33.298Z,10.12
2023-03-01T11:24:31.322Z,10.71
2023-03-01T11:27:20.943Z,10.76
2023-03-01T11:30:07.904Z,10.26
2023-03-01T11:32:55.571Z,11.13
2023-03-01T11:35:44.314Z,11.12
2023-03-01T11:38:30.991Z,10.71
2023-03-01T11:41:19.058Z,10.94
2023-03-01T11:44:05.335Z,10.83
2023-03-01T11:46:53.586Z,10.94
2023-03-01T11:49:50.247Z,10.99
2023-03-01T11:52:38.088Z,11.45
2023-03-01T11:55:29.623Z,11.76
2023-03-01T11:58:29.229Z,12.01
2023-03-01T12:01:18.038Z,10.96
2023-03-01T12:04:37.249Z,11.59
2023-03-01T12:07:24.574Z,11.23
2023-03-01T12:10:21.877Z,10.89
2023-03-01T12:13:15.908Z,11.11
2023-03-01T12:16:09.277Z,11.29
2023-03-01T12:18:58.522Z,11.32
2023-03-01T12:21:51.412Z,11.68
2023-03-01T12:24:52.208Z,12.06
2023-03-01T12:27:53.015Z,11.83
2023-03-01T12:30:41.825Z,11.33
2023-03-01T12:33:31.253Z,12.20
2023-03-01T12:36:35.083Z,11.50
2023-03-01T12:39:32.241Z,12.12
2023-03-01T12:42:19.725Z,11.87
2023-03-01T12:45:26.648Z,11.75
2023-03-01T12:48:17.590Z,12.28
2023-03-01T12:51:05.491Z,12.50
2023-03-01T12:53:51.658Z,12.21
2023-03-01T12:56:39.027Z,11.50
2023-03-01T12:59:27.265Z,11.95
2023-03-01T13:02:15.625Z,12.51
2023-03-01T13:05:18.897Z,12.77
2023-03-01T13:08:08.089Z,12.05
2023-03-01T13:10:55.365Z,12.42
2023-03-01T13:13:41.451Z,11.86
2023-03-01T13:16:45.937Z,11.64
2023-03-01T13:19:33.191Z,11.63
2023-03-01T13:22:29.746Z,11.88
2023-03-01T13:25:18.760Z,11.02
2023-03-01T13:28:32.015Z,11.77
2023-03-01T13:31:36.855Z,11.83
2023-03-01T13:34:41.772Z,10.71
2023-03-01T13:37:38.228Z,10.68
2023-03-01T13:40:42.749Z,11.06
2023-03-01T13:43:34.021Z,11.03
2023-03-01T13:46:20.370Z,10.80
2023-03-01T13:49:06.392Z,9.71
2023-03-01T13:51:53.197Z,10.01
2023-03-01T13:54:38.978Z,9.60
2023-03-01T13:57:27.027Z,9.74
2023-03-01T14:00:27.656Z,9.33
2023-03-01T14:03:15.170Z,8.65
2023-03-01T14:06:13.222Z,8.57
2023-03-01T14:09:05.171Z,8.31
2023-03-01T14:11:57.580Z,8.33
2023-03-01T14:14:44.420Z,8.33
2023-03-01T14:17:37.912Z,8.10
2023-03-01T14:20:24.746Z,7.63
2023-03-01T14:23:11.280Z,7.40
2023-03-01T14:25:57.669Z,7.32
2023-03-01T14:28:44.027Z,6.76
2023-03-01T14:31:52.073Z,6.93
2023-03-01T14:34:40.509Z,7.07
2023-03-01T14:37:26.844Z,7.06
2023-03-01T14:40:21.474Z,6.94
2023-03-01T14:43:10.595Z,6.83
2023-03-01T14:45:56.483Z,6.70
2023-03-01T14:48:42.295Z,6.65
2023-03-01T14:51:29.382Z,6.50
2023-03-01T14:54:20.554Z,6.47
2023-03-01T14:57:06.689Z,6.41
2023-03-01T14:59:53.823Z,6.27
2023-03-01T15:02:40.419Z,6.15
2023-03-01T15:05:27.782Z,6.11
2023-03-01T15:08:18.844Z,6.05
2023-03-01T15:11:08.647Z,6.00
2023-03-01T15:13:55.278Z,5.99
2023-03-01T15:16:42.174Z,5.85
2023-03-01T15:19:28.350Z,5.74
2023-03-01T15:22:15.544Z,5.70
2023-03-01T15:25:02.921Z,5.68
2023-03-01T15:27:48.914Z,5.60
2023-03-01T15:30:39.045Z,5.53
2023-03-01T15:33:30.408Z,5.51
2023-03-01T15:36:32.933Z,5.49
2023-03-01T15:39:44.677Z,5.35
2023-03-01T15:42:41.267Z,5.37
2023-03-01T15:45:28.744Z,5.32
2023-03-01T15:48:16.489Z,5.24
2023-03-01T15:51:03.322Z,5.24
2023-03-01T15:53:54.535Z,5.13
2023-03-01T15:56:45.369Z,5.08
2023-03-01T15:59:32.737Z,5.07
2023-03-01T16:02:18.389Z,5.06
2023-03-01T16:05:04.265Z,5.01
2023-03-01T16:07:50.025Z,4.98
2023-03-01T16:10:36.002Z,4.92
2023-03-01T16:13:22.023Z,4.93
2023-03-01T16:16:10.286Z,4.83
2023-03-01T16:18:56.791Z,4.75
2023-03-01T16:21:43.151Z,4.71
2023-03-01T16:24:29.075Z,4.63
2023-03-01T16:27:16.415Z,4.54
2023-03-01T16:30:02.192Z,4.53
2023-03-01T16:32:49.669Z,4.40
2023-03-01T16:35:36.022Z,4.33
2023-03-01T16:38:22.553Z,4.27
2023-03-01T16:41:08.742Z,4.19
2023-03-01T16:43:54.676Z,4.15
2023-03-01T16:46:41.206Z,4.08
2023-03-01T16:49:28.418Z,3.99
2023-03-01T16:52:14.234Z,3.91
2023-03-01T16:55:00.051Z,3.82
2023-03-01T16:57:45.792Z,3.71
2023-03-01T17:00:31.527Z,3.63
2023-03-01T17:03:18.048Z,3.49
2023-03-01T17:06:06.388Z,3.37
2023-03-01T17:08:52.559Z,3.25
2023-03-01T17:11:38.244Z,3.10
2023-03-01T17:14:24.206Z,2.98
2023-03-01T17:17:10.390Z,2.84
2023-03-01T17:19:56.287Z,2.70
2023-03-01T17:22:43.819Z,2.59
2023-03-01T17:25:29.572Z,2.46
2023-03-01T17:28:15.609Z,2.35
2023-03-01T17:31:02.022Z,2.23
2023-03-01T17:33:47.978Z,2.07
2023-03-01T17:36:41.572Z,1.91
2023-03-01T17:39:35.869Z,1.84
2023-03-01T17:42:21.899Z,1.73
2023-03-01T17:45:08.383Z,1.62
2023-03-01T17:47:54.502Z,1.53
2023-03-01T17:50:41.194Z,1.44
2023-03-01T17:53:27.171Z,1.30
2023-03-01T17:56:14.326Z,1.23
2023-03-01T17:59:00.122Z,1.14
2023-03-01T18:01:46.170Z,1.05
2023-03-01T18:04:33.186Z,0.98
2023-03-01T18:07:19.207Z,0.88
2023-03-01T18:10:05.642Z,0.80
2023-03-01T18:12:53.333Z,0.73
2023-03-01T18:15:39.074Z,0.66
2023-03-01T18:18:24.782Z,0.59
2023-03-01T18:21:10.418Z,0.51
2023-03-01T18:23:56.180Z,0.43
2023-03-01T18:26:42.382Z,0.37
2023-03-01T18:29:29.622Z,0.29
2023-03-01T18:32:15.467Z,0.21
2023-03-01T18:35:01.288Z,0.12
2023-03-01T18:37:47.035Z,0.07
2023-03-01T18:40:33.429Z,-0.02
2023-03-01T18:43:19.244Z,-0.06
2023-03-01T18:46:06.497Z,-0.17
2023-03-01T18:48:53.024Z,-0.21
2023-03-01T18:51:39.213Z,-0.27
2023-03-01T18:54:25.161Z,-0.35
2023-03-01T18:57:11.115Z,-0.41
2023-03-01T18:59:56.831Z,-0.46
2023-03-01T19:02:43.854Z,-0.52
2023-03-01T19:05:29.995Z,-0.59
2023-03-01T19:08:15.718Z,-0.65
2023-03-01T19:11:02.299Z,-0.69
2023-03-01T19:13:51.615Z,-0.74
2023-03-01T19:16:37.457Z,-0.79
2023-03-01T19:19:25.230Z,-0.84
2023-03-01T19:22:11.014Z,-0.88
2023-03-01T19:24:56.814Z,-0.92
2023-03-01T19:27:42.789Z,-0.95
2023-03-01T19:30:28.714Z,-1.00
2023-03-01T19:33:14.535Z,-1.05
2023-03-01T19:36:01.854Z,-1.09
2023-03-01T19:38:47.926Z,-1.11
2023-03-01T19:41:33.966Z,-1.17
2023-03-01T19:44:24.679Z,-1.23
2023-03-01T19:47:10.614Z,-1.28
2023-03-01T19:49:56.321Z,-1.31
2023-03-01T19:52:43.330Z,-1.35
2023-03-01T19:55:29.073Z,-1.37
2023-03-01T19:58:15.032Z,-1.41
2023-03-01T20:01:01.598Z,-1.45
2023-03-01T20:03:48.127Z,-1.49
2023-03-01T20:06:34.582Z,-1.54
2023-03-01T20:09:22.708Z,-1.58
2023-03-01T20:12:09.010Z,-1.63
2023-03-01T20:14:56.314Z,-1.68
2023-03-01T20:17:42.036Z,-1.72
2023-03-01T20:20:27.920Z,-1.75
2023-03-01T20:23:13.690Z,-1.79
2023-03-01T20:26:04.651Z,-1.85
2023-03-01T20:28:51.620Z,-1.87
2023-03-01T20:31:39.676Z,-1.93
2023-03-01T20:34:25.848Z,-1.95
2023-03-01T20:37:11.985Z,-2.01
2023-03-01T20:39:58.127Z,-2.04
2023-03-01T20:42:45.157Z,-2.12
2023-03-01T20:45:30.864Z,-2.15
2023-03-01T20:48:16.829Z,-2.21
2023-03-01T20:51:05.483Z,-2.27
2023-03-01T20:53:51.305Z,-2.23
2023-03-01T20:56:37.718Z,-2.27
2023-03-01T20:59:25.414Z,-2.28
2023-03-01T21:02:11.227Z,-2.34
2023-03-01T21:04:56.935Z,-2.36
2023-03-01T21:07:43.420Z,-2.41
2023-03-01T21:10:29.754Z,-2.42
2023-03-01T21:13:15.553Z,-2.45
2023-03-01T21:16:04.499Z,-2.45
2023-03-01T21:18:50.623Z,-2.47
2023-03-01T21:21:36.876Z,-2.49
2023-03-01T21:24:22.837Z,-2.56
2023-03-01T21:27:08.667Z,-2.62
2023-03-01T21:29:54.515Z,-2.60
2023-03-01T21:32:41.612Z,-2.63
2023-03-01T21:35:28.192Z,-2.64
2023-03-01T21:38:13.812Z,-2.71
2023-03-01T21:40:59.584Z,-2.73
2023-03-01T21:43:45.866Z,-2.73
2023-03-01T21:46:33.156Z,-2.81
2023-03-01T21:49:20.792Z,-2.86
2023-03-01T21:52:06.654Z,-2.94
2023-03-01T21:54:52.826Z,-2.96
2023-03-01T21:57:44.278Z,-3.02
2023-03-01T22:00:29.973Z,-3.04
2023-03-01T22:03:16.018Z,-3.03
2023-03-01T22:06:03.297Z,-3.09
2023-03-01T22:08:49.593Z,-3.14
2023-03-01T22:11:36.121Z,-3.22
2023-03-01T22:14:22.275Z,-3.24
2023-03-01T22:17:08.217Z,-3.25
2023-03-01T22:19:53.870Z,-3.25
2023-03-01T22:22:41.070Z,-3.27
2023-03-01T22:25:27.150Z,-3.30
2023-03-01T22:28:13.154Z,-3.28
2023-03-01T22:30:58.838Z,-3.26
2023-03-01T22:33:44.595Z,-3.29
2023-03-01T22:36:30.528Z,-3.32
2023-03-01T22:39:18.897Z,-3.36
2023-03-01T22:42:05.980Z,-3.36
2023-03-01T22:44:51.794Z,-3.41
2023-03-01T22:47:38.532Z,-3.43
2023-03-01T22:50:24.632Z,-3.44
2023-03-01T22:53:10.508Z,-3.48
2023-03-01T22:55:57.918Z,-3.49
2023-03-01T22:58:44.321Z,-3.47
2023-03-01T23:01:30.562Z,-3.46
2023-03-01T23:04:16.718Z,-3.53
2023-03-01T23:07:02.741Z,-3.53
2023-03-01T23:09:51.120Z,-3.55
2023-03-01T23:12:38.592Z,-3.59
2023-03-01T23:15:24.182Z,-3.62
2023-03-01T23:18:10.517Z,-3.65
2023-03-01T23:20:56.411Z,-3.62
2023-03-01T23:23:42.814Z,-3.61
2023-03-01T23:26:30.574Z,-3.63
2023-03-01T23:29:18.492Z,-3.60
2023-03-01T23:32:04.723Z,-3.66
2023-03-01T23:34:51.231Z,-3.70
2023-03-01T23:37:37.487Z,-3.72
2023-03-01T23:40:23.186Z,-3.75
2023-03-01T23:43:09.215Z,-3.79
2023-03-01T23:45:56.485Z,-3.83
2023-03-01T23:48:42.962Z,-3.87
2023-03-01T23:51:29.120Z,-3.88
2023-03-01T23:54:16.873Z,-3.89
2023-03-01T23:57:02.832Z,-3.92
2023-03-01T23:59:48.621Z,-3.93
